Time;durP1;ratioP1;P1;durP2;ratioP2;P2;SDS_P1;SDS_P2;PMS_P1;PMS_P2;Temp;Humidity;BMP_temperature;BMP_pressure;BME280_temperature;BME280_humidity;BME280_pressure;Samples;Min_cycle;Max_cycle;Signal;HPM_P1;HPM_P2
2021/06/08 00:00:39;;;;;;;8.43;5.62;;;;;;;14.59;98.53;99706.61;1681097;82;21031;-72
2021/06/08 00:03:07;;;;;;;8.58;5.00;;;;;;;14.59;98.43;99706.13;1703368;84;21669;-72
2021/06/08 00:05:33;;;;;;;6.33;4.45;;;;;;;14.60;98.25;99706.98;1703056;84;21036;-72
2021/06/08 00:08:01;;;;;;;7.25;5.35;;;;;;;14.60;98.42;99701.67;1703284;81;21112;-71
2021/06/08 00:10:28;;;;;;;5.72;5.12;;;;;;;14.61;98.44;99700.75;1703092;84;21040;-71
2021/06/08 00:12:54;;;;;;;7.75;4.67;;;;;;;14.61;98.30;99698.10;1691390;84;21038;-72
2021/06/08 00:15:21;;;;;;;4.85;4.35;;;;;;;14.60;98.33;99688.42;1677300;85;21043;-73
2021/06/08 00:17:48;;;;;;;6.60;4.58;;;;;;;14.59;98.28;99692.03;1677719;85;21104;-72
2021/06/08 00:20:15;;;;;;;8.08;5.47;;;;;;;14.59;98.72;99694.69;1677044;85;21134;-74
2021/06/08 00:22:42;;;;;;;9.43;5.10;;;;;;;14.60;98.77;99701.67;1677572;82;21105;-89
2021/06/08 00:25:10;;;;;;;8.55;5.30;;;;;;;14.60;98.75;99700.34;1677359;85;21576;-76
2021/06/08 00:27:37;;;;;;;8.70;5.42;;;;;;;14.61;98.84;99698.10;1677959;82;22076;-77
2021/06/08 00:30:06;;;;;;;8.05;5.95;;;;;;;14.61;98.81;99696.77;1660578;84;21047;-79
2021/06/08 00:32:33;;;;;;;10.60;5.50;;;;;;;14.62;98.76;99699.79;1703464;81;21268;-77
2021/06/08 00:35:00;;;;;;;7.62;5.78;;;;;;;14.61;98.73;99699.42;1708568;83;21610;-76
2021/06/08 00:37:27;;;;;;;13.28;5.85;;;;;;;14.62;98.72;99703.28;1716170;83;20988;-76
2021/06/08 00:39:53;;;;;;;8.70;6.20;;;;;;;14.63;98.70;99708.11;1715783;82;21034;-77
2021/06/08 00:42:33;;;;;;;10.53;6.37;;;;;;;14.63;98.86;99692.20;1715801;80;21051;-76
2021/06/08 00:45:00;;;;;;;5.20;4.70;;;;;;;14.60;98.67;99699.03;1715987;83;21129;-75
2021/06/08 00:47:27;;;;;;;8.30;5.20;;;;;;;14.56;98.55;99690.88;1715769;83;21537;-76
2021/06/08 00:49:54;;;;;;;9.08;5.42;;;;;;;14.54;98.74;99688.75;1715888;83;21011;-76
2021/06/08 00:52:21;;;;;;;8.03;4.78;;;;;;;14.50;98.67;99690.75;1714615;83;21028;-76
2021/06/08 00:54:47;;;;;;;7.90;4.67;;;;;;;14.45;98.75;99691.03;1714722;83;21607;-76
2021/06/08 00:57:15;;;;;;;5.62;4.75;;;;;;;14.43;98.97;99695.56;1714030;83;21129;-76
2021/06/08 00:59:41;;;;;;;8.18;5.87;;;;;;;14.39;99.07;99690.06;1713750;82;21196;-76
2021/06/08 01:02:08;;;;;;;8.25;5.90;;;;;;;14.36;99.05;99696.87;1714126;83;21087;-76
2021/06/08 01:04:35;;;;;;;7.97;4.85;;;;;;;14.33;99.00;99691.74;1713857;83;21499;-75
2021/06/08 01:07:02;;;;;;;14.18;6.15;;;;;;;14.29;99.16;99692.89;1713899;82;21067;-75
2021/06/08 01:09:29;;;;;;;10.20;6.08;;;;;;;14.25;99.22;99696.66;1713892;83;21133;-75
2021/06/08 01:11:56;;;;;;;8.85;6.30;;;;;;;14.09;99.37;99677.33;1715421;83;21070;-74
2021/06/08 01:14:23;;;;;;;8.65;6.10;;;;;;;14.19;99.50;99701.83;1715534;83;21661;-74
2021/06/08 01:16:49;;;;;;;8.28;6.17;;;;;;;14.13;99.43;99697.39;1716037;83;21050;-75
2021/06/08 01:19:17;;;;;;;8.88;6.25;;;;;;;14.09;99.44;99698.51;1715537;82;21060;-76
2021/06/08 01:21:44;;;;;;;8.35;5.85;;;;;;;14.04;99.61;99696.98;1716093;83;21102;-74
2021/06/08 01:24:12;;;;;;;12.58;6.78;;;;;;;14.00;99.70;99706.03;1715549;83;21540;-74
2021/06/08 01:26:39;;;;;;;9.43;6.60;;;;;;;13.94;99.91;99706.41;1715988;82;21031;-75
2021/06/08 01:29:06;;;;;;;9.43;6.70;;;;;;;13.86;100.00;99711.27;1715468;83;21727;-75
2021/06/08 01:31:35;;;;;;;10.88;6.87;;;;;;;13.81;100.00;99710.69;1693269;83;21589;-75
2021/06/08 01:34:01;;;;;;;7.45;5.20;;;;;;;13.77;100.00;99710.47;1714091;83;21089;-80
2021/06/08 01:36:35;;;;;;;12.55;6.50;;;;;;;13.73;100.00;99716.39;1714293;83;21055;-79
2021/06/08 01:39:03;;;;;;;6.17;5.45;;;;;;;13.72;100.00;99712.53;1697873;83;21038;-80
2021/06/08 01:41:30;;;;;;;8.48;5.87;;;;;;;13.70;100.00;99717.91;1713901;83;21062;-80
2021/06/08 01:43:57;;;;;;;9.15;5.08;;;;;;;13.68;100.00;99718.94;1714400;83;20993;-80
2021/06/08 01:47:39;;;;;;;9.90;7.47;;;;;;;13.72;100.00;99717.83;1796168;79;22732;-75
2021/06/08 01:50:07;;;;;;;10.75;7.22;;;;;;;13.64;100.00;99716.47;1755990;80;21780;-75
2021/06/08 01:52:42;;;;;;;10.63;6.92;;;;;;;13.67;100.00;99723.86;1756000;81;21757;-79
2021/06/08 01:55:17;;;;;;;9.90;6.85;;;;;;;13.61;100.00;99721.91;1755840;81;21124;-78
2021/06/08 01:57:50;;;;;;;5.70;4.80;;;;;;;13.58;100.00;99726.55;1748199;81;21592;-78
2021/06/08 02:00:23;;;;;;;6.58;5.30;;;;;;;13.55;100.00;99725.38;1747622;80;21024;-77
2021/06/08 02:03:10;;;;;;;7.87;6.15;;;;;;;13.54;100.00;99731.13;1675282;85;21668;-78
2021/06/08 02:06:04;;;;;;;9.78;7.72;;;;;;;13.54;100.00;99724.52;1705657;84;21128;-79
2021/06/08 02:09:02;;;;;;;10.65;7.33;;;;;;;13.53;100.00;99729.92;1705905;84;21158;-77
2021/06/08 02:11:52;;;;;;;10.78;6.97;;;;;;;13.51;100.00;99729.15;1684403;84;21109;-76
2021/06/08 02:14:26;;;;;;;9.05;7.10;;;;;;;13.51;100.00;99726.03;1705676;84;21085;-76
2021/06/08 02:17:02;;;;;;;11.70;7.53;;;;;;;13.50;100.00;99722.98;1684375;85;21093;-76
2021/06/08 02:19:29;;;;;;;8.30;7.25;;;;;;;13.49;100.00;99729.22;1691042;84;21127;-76
2021/06/08 02:21:59;;;;;;;12.18;8.15;;;;;;;13.48;100.00;99719.59;1657360;85;21105;-77
2021/06/08 02:24:26;;;;;;;14.65;8.35;;;;;;;13.48;100.00;99724.89;1705887;84;21064;-77
2021/06/08 02:26:58;;;;;;;12.78;8.18;;;;;;;13.51;100.00;99728.67;1684613;85;21066;-77
2021/06/08 02:29:25;;;;;;;11.68;7.35;;;;;;;13.54;100.00;99728.48;1705739;84;21105;-77
2021/06/08 02:31:51;;;;;;;10.28;7.40;;;;;;;13.56;100.00;99730.59;1685892;85;21206;-77
2021/06/08 02:34:18;;;;;;;9.30;7.92;;;;;;;13.60;100.00;99741.39;1661438;84;21020;-78
2021/06/08 02:36:45;;;;;;;8.80;7.85;;;;;;;13.63;100.00;99731.09;1702324;84;21105;-77
2021/06/08 02:39:12;;;;;;;12.85;7.03;;;;;;;13.67;100.00;99737.94;1707252;84;21120;-77
2021/06/08 02:41:39;;;;;;;8.35;7.03;;;;;;;13.71;100.00;99735.50;1707052;84;21085;-78
2021/06/08 02:44:06;;;;;;;13.03;7.78;;;;;;;13.79;100.00;99745.65;1707400;84;21089;-77
2021/06/08 02:46:33;;;;;;;8.98;7.45;;;;;;;13.84;100.00;99747.56;1703857;83;21072;-77
2021/06/08 02:49:00;;;;;;;11.25;7.95;;;;;;;13.89;100.00;99754.77;1709692;83;21056;-76
2021/06/08 02:51:27;;;;;;;13.45;8.05;;;;;;;13.96;100.00;99745.53;1700039;84;21548;-74
2021/06/08 02:53:54;;;;;;;10.05;8.55;;;;;;;14.04;100.00;99749.92;1709783;83;21052;-76
2021/06/08 02:56:21;;;;;;;10.98;8.18;;;;;;;14.10;100.00;99734.63;1700231;84;21078;-76
2021/06/08 02:58:48;;;;;;;13.18;7.72;;;;;;;14.19;100.00;99736.73;1710056;83;21000;-77
2021/06/08 03:01:17;;;;;;;11.45;7.75;;;;;;;14.28;100.00;99747.64;1685257;84;21148;-74
2021/06/08 03:03:49;;;;;;;10.30;7.87;;;;;;;14.38;100.00;99744.00;1700196;84;21043;-74
2021/06/08 03:06:22;;;;;;;11.38;8.90;;;;;;;14.50;100.00;99748.20;1699583;84;21066;-74
2021/06/08 03:09:03;;;;;;;13.30;9.40;;;;;;;14.61;100.00;99751.95;1635616;87;21142;-74
2021/06/08 03:11:41;;;;;;;12.98;9.18;;;;;;;14.73;100.00;99746.38;1699616;84;21098;-73
2021/06/08 03:14:12;;;;;;;14.87;8.83;;;;;;;14.84;100.00;99748.39;1699604;84;21573;-75
2021/06/08 03:16:47;;;;;;;12.80;8.68;;;;;;;14.96;100.00;99745.45;1683945;84;21083;-75
2021/06/08 03:19:16;;;;;;;11.35;8.05;;;;;;;15.09;100.00;99745.05;1699718;83;21082;-76
2021/06/08 03:21:43;;;;;;;9.03;7.70;;;;;;;15.19;100.00;99732.95;1668404;86;21130;-74
2021/06/08 03:24:14;;;;;;;9.13;7.90;;;;;;;15.33;100.00;99739.20;1668252;86;21083;-76
2021/06/08 03:26:42;;;;;;;14.47;9.53;;;;;;;15.48;100.00;99747.49;1668486;86;21136;-76
2021/06/08 03:29:11;;;;;;;7.33;6.08;;;;;;;15.61;100.00;99740.46;1668400;86;21021;-77
2021/06/08 03:31:40;;;;;;;9.85;8.55;;;;;;;15.73;100.00;99750.34;1668659;86;21084;-76
2021/06/08 03:34:06;;;;;;;9.73;8.35;;;;;;;15.80;100.00;99747.27;1668295;86;21125;-76
2021/06/08 03:36:34;;;;;;;10.18;9.00;;;;;;;15.84;100.00;99746.12;1663583;85;21112;-75
2021/06/08 03:39:02;;;;;;;12.33;8.35;;;;;;;15.92;100.00;99751.80;1668451;85;21651;-77
2021/06/08 03:41:29;;;;;;;10.55;8.65;;;;;;;16.05;100.00;99750.02;1668325;86;21086;-75
2021/06/08 03:43:56;;;;;;;14.58;8.95;;;;;;;16.20;99.66;99749.98;1668639;86;21153;-76
2021/06/08 03:46:24;;;;;;;9.53;8.30;;;;;;;16.34;99.20;99740.61;1666583;83;21173;-75
2021/06/08 03:48:57;;;;;;;10.53;8.43;;;;;;;16.52;98.35;99747.83;1658525;86;21078;-77
2021/06/08 03:51:31;;;;;;;11.20;8.08;;;;;;;16.70;97.03;99756.33;1658320;86;21072;-76
2021/06/08 03:54:01;;;;;;;9.00;7.87;;;;;;;16.87;96.26;99752.57;1680512;85;21078;-77
2021/06/08 03:56:28;;;;;;;8.33;7.45;;;;;;;17.06;95.35;99757.45;1711067;82;21066;-76
2021/06/08 03:58:56;;;;;;;10.45;8.93;;;;;;;17.25;95.09;99751.20;1669182;85;21162;-75
2021/06/08 04:01:23;;;;;;;7.28;5.75;;;;;;;17.45;93.29;99748.94;1667057;85;21069;-73
2021/06/08 04:03:50;;;;;;;11.55;7.15;;;;;;;17.59;92.38;99756.30;1663548;85;21140;-74
2021/06/08 04:06:18;;;;;;;9.53;7.03;;;;;;;17.76;90.49;99755.09;1658979;85;21121;-73
2021/06/08 04:08:45;;;;;;;8.90;6.62;;;;;;;17.91;89.60;99757.13;1660407;84;21541;-74
2021/06/08 04:11:13;;;;;;;8.58;6.08;;;;;;;18.09;88.47;99758.93;1656392;85;21125;-75
2021/06/08 04:13:40;;;;;;;10.23;6.80;;;;;;;18.29;87.79;99756.58;1661929;85;21056;-73
2021/06/08 04:16:08;;;;;;;8.05;6.72;;;;;;;18.38;86.35;99740.77;1654577;86;21585;-73
2021/06/08 04:18:36;;;;;;;7.50;6.70;;;;;;;18.71;85.37;99756.97;1654888;86;21096;-74
2021/06/08 04:21:03;;;;;;;9.23;6.35;;;;;;;18.98;83.81;99754.87;1654785;86;21137;-73
2021/06/08 04:23:30;;;;;;;7.42;6.40;;;;;;;19.25;82.55;99748.31;1659216;85;21356;-75
2021/06/08 04:25:58;;;;;;;8.35;7.17;;;;;;;19.52;80.73;99755.11;1663754;85;21030;-75
2021/06/08 04:28:26;;;;;;;8.43;6.95;;;;;;;19.68;78.56;99752.89;1665803;85;21169;-77
2021/06/08 04:30:55;;;;;;;11.78;7.60;;;;;;;19.76;77.94;99758.52;1655939;85;21731;-75
2021/06/08 04:33:25;;;;;;;7.00;6.30;;;;;;;19.90;76.15;99755.55;1670147;85;21057;-74
2021/06/08 04:35:52;;;;;;;9.63;7.20;;;;;;;20.07;76.45;99758.66;1663903;85;21667;-74
2021/06/08 04:38:20;;;;;;;10.10;6.97;;;;;;;20.31;75.33;99758.44;1694831;84;21061;-74
2021/06/08 04:40:51;;;;;;;8.85;6.92;;;;;;;20.52;73.71;99757.98;1678030;84;21129;-73
2021/06/08 04:43:23;;;;;;;10.93;6.72;;;;;;;20.79;71.75;99759.81;1665975;86;22367;-74
2021/06/08 04:45:50;;;;;;;9.75;6.25;;;;;;;20.98;70.29;99759.06;1684354;84;21131;-74
2021/06/08 04:48:19;;;;;;;11.45;6.72;;;;;;;21.12;69.72;99751.55;1674290;83;21099;-73
2021/06/08 04:50:46;;;;;;;7.92;5.22;;;;;;;21.33;69.19;99756.85;1670822;84;21072;-77
2021/06/08 04:53:13;;;;;;;6.97;6.28;;;;;;;21.62;68.35;99757.96;1666485;84;21096;-75
2021/06/08 04:55:40;;;;;;;11.15;6.25;;;;;;;21.84;64.94;99755.06;1689849;84;21076;-74
2021/06/08 04:58:07;;;;;;;8.25;5.35;;;;;;;21.98;63.82;99754.66;1693743;84;21081;-75
2021/06/08 05:00:50;;;;;;;9.08;5.20;;;;;;;22.12;63.84;99756.58;1693960;84;21136;-75
2021/06/08 05:03:20;;;;;;;6.53;4.50;;;;;;;22.29;63.58;99757.73;1677359;84;21046;-74
2021/06/08 05:05:52;;;;;;;7.72;4.60;;;;;;;22.50;62.69;99757.11;1685407;84;21077;-73
2021/06/08 05:08:32;;;;;;;7.08;5.00;;;;;;;22.62;60.97;99759.98;1682267;84;21067;-74
2021/06/08 05:11:18;;;;;;;7.55;4.90;;;;;;;22.76;59.66;99756.51;1666309;86;27922;-74
2021/06/08 05:13:51;;;;;;;9.23;4.65;;;;;;;22.87;59.97;99756.82;1665911;84;21126;-74
2021/06/08 05:16:18;;;;;;;5.92;4.83;;;;;;;23.09;59.13;99752.48;1665568;86;21681;-75
2021/06/08 05:18:49;;;;;;;5.80;4.40;;;;;;;23.24;57.19;99751.03;1672361;84;21053;-75
2021/06/08 05:21:16;;;;;;;7.72;4.50;;;;;;;23.32;57.11;99745.41;1686478;84;21118;-75
2021/06/08 05:23:43;;;;;;;4.75;4.10;;;;;;;23.55;57.49;99747.20;1665859;84;21623;-76
2021/06/08 05:26:11;;;;;;;4.72;3.87;;;;;;;23.81;56.85;99755.42;1666195;86;21176;-75
2021/06/08 05:28:41;;;;;;;7.20;4.05;;;;;;;24.03;55.43;99752.31;1685231;83;21061;-74
2021/06/08 05:31:09;;;;;;;7.83;3.85;;;;;;;24.17;54.49;99752.78;1676876;84;21114;-75
2021/06/08 05:33:36;;;;;;;7.47;4.10;;;;;;;24.38;53.40;99749.27;1693460;84;21065;-76
2021/06/08 05:36:08;;;;;;;4.80;3.62;;;;;;;24.54;53.01;99746.41;1694205;84;21605;-75
2021/06/08 05:38:42;;;;;;;5.95;3.12;;;;;;;24.70;52.72;99749.22;1664103;84;21081;-73
2021/06/08 05:41:14;;;;;;;11.45;3.40;;;;;;;24.88;51.47;99746.49;1693929;84;21066;-74
2021/06/08 05:43:41;;;;;;;4.60;2.70;;;;;;;25.04;50.54;99740.36;1693892;84;21576;-74
2021/06/08 05:46:11;;;;;;;5.75;3.90;;;;;;;25.28;50.05;99747.27;1693897;84;21050;-76
2021/06/08 05:48:39;;;;;;;4.80;3.75;;;;;;;25.50;50.07;99746.34;1711342;83;21178;-75
2021/06/08 05:51:07;;;;;;;5.37;4.00;;;;;;;25.73;49.60;99747.43;1714421;83;21086;-75
2021/06/08 05:53:41;;;;;;;4.58;4.12;;;;;;;25.89;48.16;99748.52;1714495;83;21038;-76
2021/06/08 05:56:09;;;;;;;4.85;3.50;;;;;;;25.97;47.98;99749.87;1714849;83;21099;-76
2021/06/08 05:58:37;;;;;;;4.47;3.20;;;;;;;26.07;47.42;99751.09;1710145;83;21574;-76
2021/06/08 06:01:07;;;;;;;4.67;2.87;;;;;;;26.10;47.41;99750.75;1686127;83;21644;-74
2021/06/08 06:03:34;;;;;;;7.43;3.20;;;;;;;26.10;45.83;99751.59;1695126;83;21115;-74
2021/06/08 06:06:02;;;;;;;5.97;3.15;;;;;;;26.15;44.91;99751.93;1693332;83;21115;-75
2021/06/08 06:08:29;;;;;;;9.43;4.20;;;;;;;26.07;46.64;99747.89;1681666;83;21621;-77
2021/06/08 06:10:59;;;;;;;6.00;3.70;;;;;;;26.22;47.31;99752.62;1700567;83;21049;-74
2021/06/08 06:13:39;;;;;;;4.53;4.00;;;;;;;26.33;47.20;99750.95;1700449;83;21117;-74
2021/06/08 06:16:06;;;;;;;5.67;3.50;;;;;;;26.48;46.51;99751.11;1667577;84;21221;-75
2021/06/08 06:18:33;;;;;;;11.00;4.10;;;;;;;26.67;46.18;99746.76;1706451;83;21030;-75
2021/06/08 06:21:02;;;;;;;4.28;3.60;;;;;;;26.84;46.23;99746.22;1664991;84;21068;-75
2021/06/08 06:23:28;;;;;;;4.83;3.80;;;;;;;26.97;45.44;99743.00;1683494;84;21059;-75
2021/06/08 06:25:57;;;;;;;4.75;4.00;;;;;;;27.12;44.68;99740.41;1680089;84;21052;-74
2021/06/08 06:28:24;;;;;;;4.35;3.95;;;;;;;27.30;44.25;99731.60;1706664;83;21120;-74
2021/06/08 06:30:51;;;;;;;5.87;3.72;;;;;;;27.34;44.39;99734.30;1703698;83;21061;-75
2021/06/08 06:33:18;;;;;;;4.37;3.90;;;;;;;27.40;43.60;99734.96;1716085;83;21582;-74
2021/06/08 06:35:45;;;;;;;3.35;3.05;;;;;;;27.55;43.39;99731.51;1719311;83;21100;-74
2021/06/08 06:38:12;;;;;;;4.70;3.47;;;;;;;27.51;43.36;99735.06;1711315;83;21060;-78
2021/06/08 06:40:39;;;;;;;3.47;3.17;;;;;;;27.57;43.21;99736.23;1715532;83;21112;-77
2021/06/08 06:43:09;;;;;;;11.30;3.90;;;;;;;27.82;42.20;99724.26;1690674;84;21052;-79
2021/06/08 06:45:37;;;;;;;5.47;4.33;;;;;;;27.99;41.62;99719.61;1689950;84;21095;-78
2021/06/08 06:48:05;;;;;;;8.40;4.20;;;;;;;27.86;42.62;99721.22;1716236;83;21036;-78
2021/06/08 06:50:36;;;;;;;8.75;4.12;;;;;;;27.95;42.43;99725.55;1681733;83;21083;-77
2021/06/08 06:53:03;;;;;;;4.00;3.58;;;;;;;28.12;42.44;99726.30;1700123;83;21146;-76
2021/06/08 06:55:32;;;;;;;5.87;3.90;;;;;;;28.20;41.59;99723.52;1695846;83;21108;-78
2021/06/08 06:57:59;;;;;;;5.67;3.75;;;;;;;28.20;42.20;99728.41;1681846;84;21020;-77
2021/06/08 07:00:27;;;;;;;8.18;3.05;;;;;;;28.38;40.52;99723.22;1690507;84;21787;-76
2021/06/08 07:02:56;;;;;;;6.87;3.90;;;;;;;28.41;39.74;99728.26;1684144;83;22116;-77
2021/06/08 07:05:30;;;;;;;6.85;3.72;;;;;;;28.47;40.57;99719.44;1694077;83;21744;-77
2021/06/08 07:07:57;;;;;;;6.75;3.60;;;;;;;28.81;40.32;99718.12;1685001;84;21034;-77
2021/06/08 07:10:26;;;;;;;7.55;3.60;;;;;;;29.22;39.20;99709.56;1705983;83;21098;-77
2021/06/08 07:12:55;;;;;;;5.25;3.30;;;;;;;29.26;38.76;99714.42;1691525;83;21115;-76
2021/06/08 07:15:27;;;;;;;5.85;3.77;;;;;;;29.38;38.78;99717.50;1705268;83;21117;-78
2021/06/08 07:17:54;;;;;;;3.50;3.20;;;;;;;29.35;38.24;99716.50;1690034;84;21136;-78
2021/06/08 07:20:31;;;;;;;4.50;3.83;;;;;;;29.39;38.38;99721.88;1684624;83;21111;-78
2021/06/08 07:22:57;;;;;;;5.20;3.90;;;;;;;29.51;38.18;99724.94;1699399;83;21580;-78
2021/06/08 07:25:25;;;;;;;9.73;4.35;;;;;;;29.68;37.71;99721.55;1673918;84;21167;-76
2021/06/08 07:27:53;;;;;;;7.50;4.00;;;;;;;29.82;38.53;99724.73;1682397;84;21055;-77
2021/06/08 07:30:20;;;;;;;5.53;3.95;;;;;;;29.94;37.43;99719.64;1703309;83;21766;-77
2021/06/08 07:32:51;;;;;;;4.40;3.80;;;;;;;29.79;36.70;99715.59;1692363;82;21754;-77
2021/06/08 07:35:29;;;;;;;6.60;4.12;;;;;;;29.57;37.36;99712.51;1687957;84;21151;-78
2021/06/08 07:37:56;;;;;;;7.28;3.80;;;;;;;29.55;37.20;99711.86;1707013;83;21109;-77
2021/06/08 07:40:32;;;;;;;5.25;3.70;;;;;;;29.73;37.94;99712.84;1690133;84;21088;-76
2021/06/08 07:43:03;;;;;;;4.00;3.42;;;;;;;29.80;36.67;99712.39;1717306;83;21873;-77
2021/06/08 07:45:48;;;;;;;3.87;3.35;;;;;;;29.52;37.56;99722.58;1709336;83;21139;-79
2021/06/08 07:48:19;;;;;;;4.47;3.75;;;;;;;29.34;37.58;99722.13;1695654;77;21642;-73
2021/06/08 07:50:50;;;;;;;9.43;3.90;;;;;;;29.07;38.48;99713.10;1689696;83;21083;-74
2021/06/08 07:53:18;;;;;;;6.70;3.55;;;;;;;29.09;39.25;99718.34;1681688;83;21538;-73
2021/06/08 07:55:46;;;;;;;8.15;4.22;;;;;;;29.07;39.26;99713.10;1664561;86;21095;-73
2021/06/08 07:58:13;;;;;;;7.22;3.58;;;;;;;28.93;39.28;99716.63;1654189;86;21556;-73
2021/06/08 08:00:41;;;;;;;5.47;3.70;;;;;;;28.75;39.23;99718.33;1664333;86;21088;-75
2021/06/08 08:05:57;;;;;;;4.20;3.27;;;;;;;28.71;39.94;99720.23;1756211;81;21073;-86
2021/06/08 08:08:24;;;;;;;4.17;2.90;;;;;;;28.81;39.45;99722.18;1729974;81;21050;-85
2021/06/08 08:10:51;;;;;;;5.58;2.80;;;;;;;28.46;39.10;99716.39;1720467;81;21042;-83
2021/06/08 08:13:24;;;;;;;4.00;2.55;;;;;;;28.15;39.54;99718.65;1734666;81;21059;-85
2021/06/08 08:15:52;;;;;;;2.77;2.52;;;;;;;28.20;39.60;99718.94;1701037;83;21066;-83
2021/06/08 08:18:20;;;;;;;3.52;2.67;;;;;;;28.57;38.99;99713.77;1703311;78;21050;-87
2021/06/08 08:20:53;;;;;;;3.22;2.92;;;;;;;28.80;38.73;99708.29;1725653;82;21130;-86
2021/06/08 08:23:21;;;;;;;12.63;3.40;;;;;;;29.13;38.00;99702.56;1712351;82;21110;-84
2021/06/08 08:25:47;;;;;;;4.65;2.92;;;;;;;29.26;38.29;99713.56;1701508;82;21622;-84
2021/06/08 08:28:14;;;;;;;11.53;3.55;;;;;;;29.14;38.50;99716.42;1698204;83;21008;-85
2021/06/08 08:30:41;;;;;;;7.83;2.92;;;;;;;28.84;38.80;99721.28;1700692;83;21068;-84
2021/06/08 08:33:08;;;;;;;15.25;3.75;;;;;;;28.59;39.03;99715.26;1708412;83;21098;-84
2021/06/08 08:35:38;;;;;;;8.65;2.52;;;;;;;28.52;38.49;99710.25;1718397;83;21101;-84
2021/06/08 08:38:05;;;;;;;12.88;3.25;;;;;;;28.66;38.94;99702.66;1712951;82;21048;-87
2021/06/08 08:40:32;;;;;;;4.60;2.10;;;;;;;28.73;38.26;99708.19;1712288;83;21606;-86
2021/06/08 08:43:03;;;;;;;3.40;2.10;;;;;;;28.72;37.34;99712.45;1705359;83;21032;-86
2021/06/08 08:45:31;;;;;;;4.95;2.12;;;;;;;28.75;36.84;99705.30;1690365;83;21116;-88
2021/06/08 08:47:58;;;;;;;6.47;2.25;;;;;;;28.80;36.78;99708.29;1705399;83;21302;-85
2021/06/08 08:50:26;;;;;;;5.50;2.25;;;;;;;28.97;37.10;99704.91;1709432;82;22212;-84
2021/06/08 08:52:56;;;;;;;4.08;2.30;;;;;;;29.17;36.78;99705.20;1695291;82;21043;-82
2021/06/08 08:55:28;;;;;;;2.35;2.15;;;;;;;29.27;36.26;99707.12;1697663;83;21067;-82
2021/06/08 08:57:57;;;;;;;7.40;2.67;;;;;;;29.22;36.39;99701.44;1700288;83;22139;-82
2021/06/08 09:00:28;;;;;;;2.65;2.00;;;;;;;28.98;36.24;99710.13;1704985;83;21023;-83
2021/06/08 09:03:00;;;;;;;4.42;2.47;;;;;;;28.68;36.83;99709.77;1692331;83;21078;-82
2021/06/08 09:05:27;;;;;;;7.53;2.90;;;;;;;28.38;37.80;99708.32;1689233;83;21034;-81
2021/06/08 09:07:54;;;;;;;4.10;2.50;;;;;;;27.94;38.63;99713.06;1695345;83;21074;-81
2021/06/08 09:10:21;;;;;;;5.08;3.20;;;;;;;27.73;39.14;99702.33;1696795;83;21158;-82
2021/06/08 09:12:50;;;;;;;4.85;2.65;;;;;;;27.76;39.56;99703.31;1699111;83;21108;-82
2021/06/08 09:15:17;;;;;;;5.72;3.02;;;;;;;27.92;40.21;99702.92;1698842;83;21047;-82
2021/06/08 09:17:44;;;;;;;4.15;2.70;;;;;;;28.03;39.86;99699.80;1697387;83;21020;-81
2021/06/08 09:20:14;;;;;;;7.97;2.98;;;;;;;28.10;39.96;99695.34;1702404;82;21007;-81
2021/06/08 09:22:58;;;;;;;2.95;2.65;;;;;;;28.13;39.52;99697.68;1692328;83;21082;-84
2021/06/08 09:25:43;;;;;;;6.08;2.90;;;;;;;28.01;39.18;99703.20;1690179;83;21035;-86
2021/06/08 09:28:32;;;;;;;3.33;2.50;;;;;;;28.02;38.03;99691.34;1691276;83;20992;-85
2021/06/08 09:31:12;;;;;;;3.40;2.70;;;;;;;27.82;38.67;99688.25;1694960;83;21109;-81
2021/06/08 09:33:47;;;;;;;7.30;2.53;;;;;;;27.75;39.24;99685.41;1699738;83;21027;-78
2021/06/08 09:36:16;;;;;;;8.80;4.33;;;;;;;27.88;39.64;99684.00;1699705;83;21860;-80
2021/06/08 09:38:58;;;;;;;5.83;3.75;;;;;;;28.18;38.88;99679.54;1713231;83;21083;-81
2021/06/08 09:41:41;;;;;;;5.47;3.00;;;;;;;28.53;38.26;99672.67;1709273;83;21059;-81
2021/06/08 09:44:11;;;;;;;3.15;2.10;;;;;;;29.11;36.44;99669.38;1697520;83;21462;-81
2021/06/08 09:46:55;;;;;;;4.25;2.47;;;;;;;29.41;34.53;99657.44;1705677;83;21032;-81
2021/06/08 09:49:34;;;;;;;2.55;2.15;;;;;;;29.46;35.63;99660.41;1708132;83;21177;-83
2021/06/08 09:52:06;;;;;;;4.03;2.50;;;;;;;29.51;35.26;99659.00;1701764;83;21015;-83
2021/06/08 09:54:43;;;;;;;3.33;1.90;;;;;;;29.37;34.84;99656.13;1689229;83;21036;-83
2021/06/08 09:57:23;;;;;;;5.00;1.95;;;;;;;29.18;35.20;99668.94;1693158;83;20984;-86
2021/06/08 09:59:57;;;;;;;4.30;2.10;;;;;;;28.95;34.29;99665.78;1706356;82;21590;-79
2021/06/08 10:02:47;;;;;;;4.95;2.80;;;;;;;28.87;34.74;99656.38;1717726;83;21087;-80
2021/06/08 10:05:28;;;;;;;5.92;2.10;;;;;;;28.88;35.15;99653.18;1716724;83;21025;-79
2021/06/08 10:08:05;;;;;;;3.22;2.22;;;;;;;29.00;35.33;99641.66;1715396;83;21048;-77
2021/06/08 10:10:45;;;;;;;6.62;2.22;;;;;;;29.21;35.64;99645.50;1688990;83;21043;-80
2021/06/08 10:13:18;;;;;;;4.00;2.25;;;;;;;29.39;34.81;99643.22;1700660;83;21012;-87
2021/06/08 10:16:07;;;;;;;3.17;2.40;;;;;;;29.17;34.35;99641.48;1696238;83;21139;-85
2021/06/08 10:18:50;;;;;;;2.62;2.00;;;;;;;28.84;35.12;99639.98;1704017;83;21091;-86
2021/06/08 10:21:24;;;;;;;3.37;1.95;;;;;;;28.51;35.22;99639.52;1701079;83;21003;-86
2021/06/08 10:23:51;;;;;;;5.37;3.10;;;;;;;28.18;36.14;99639.80;1699785;83;21108;-83
2021/06/08 10:26:18;;;;;;;4.97;3.10;;;;;;;28.08;36.42;99633.78;1680647;83;21020;-87
2021/06/08 10:28:46;;;;;;;3.85;2.60;;;;;;;27.90;36.93;99630.55;1705020;83;21132;-84
2021/06/08 10:31:13;;;;;;;4.15;2.42;;;;;;;27.63;37.83;99634.11;1697025;83;21042;-85
2021/06/08 10:33:40;;;;;;;5.60;2.35;;;;;;;27.46;38.75;99623.05;1647406;80;21078;-83
2021/06/08 10:36:07;;;;;;;5.85;2.30;;;;;;;27.50;38.66;99627.09;1625482;86;21140;-81
2021/06/08 10:38:34;;;;;;;3.20;2.87;;;;;;;27.48;38.49;99627.25;1696279;83;21585;-78
2021/06/08 10:41:01;;;;;;;4.40;2.30;;;;;;;27.44;38.03;99625.09;1709973;83;21249;-81
2021/06/08 10:43:29;;;;;;;3.00;2.58;;;;;;;27.40;38.36;99625.45;1695876;83;21076;-83
2021/06/08 10:45:57;;;;;;;3.83;2.08;;;;;;;27.58;38.20;99617.06;1713943;83;21060;-82
2021/06/08 10:48:38;;;;;;;3.12;2.70;;;;;;;27.93;36.46;99609.88;1710864;79;21068;-85
2021/06/08 10:51:18;;;;;;;4.17;2.42;;;;;;;28.01;38.68;99611.18;1695712;83;21351;-86
2021/06/08 10:53:56;;;;;;;6.03;2.75;;;;;;;27.62;38.30;99609.42;1699994;84;22062;-79
2021/06/08 10:56:34;;;;;;;8.93;2.70;;;;;;;27.25;38.70;99616.41;1698804;83;21132;-79
2021/06/08 10:59:03;;;;;;;3.92;2.30;;;;;;;27.13;39.98;99618.63;1704840;82;21115;-79
2021/06/08 11:01:40;;;;;;;8.40;2.50;;;;;;;27.18;39.25;99637.02;1686236;82;21102;-81
2021/06/08 11:04:10;;;;;;;4.85;2.50;;;;;;;27.09;39.19;99633.51;1687223;84;21063;-81
2021/06/08 11:06:52;;;;;;;4.12;2.40;;;;;;;27.02;39.63;99629.83;1689653;84;25519;-85
2021/06/08 11:09:29;;;;;;;9.28;2.85;;;;;;;26.87;40.75;99635.13;1690187;83;21476;-85
2021/06/08 11:12:09;;;;;;;6.15;2.72;;;;;;;26.62;45.38;99623.55;1671440;84;21581;-88
2021/06/08 11:14:46;;;;;;;3.30;2.50;;;;;;;26.36;46.65;99637.22;1712025;82;21611;-83
2021/06/08 11:17:19;;;;;;;4.33;2.27;;;;;;;26.02;48.32;99631.53;1710081;82;21150;-80
2021/06/08 11:19:54;;;;;;;3.98;2.75;;;;;;;25.69;47.28;99633.31;1702244;82;21136;-79
2021/06/08 11:22:25;;;;;;;10.00;3.20;;;;;;;25.28;49.09;99628.69;1718070;83;21071;-80
2021/06/08 11:24:52;;;;;;;5.35;3.12;;;;;;;24.76;50.88;99633.33;1708246;83;21537;-78
2021/06/08 11:27:19;;;;;;;6.35;3.95;;;;;;;24.24;50.27;99630.09;1675927;83;21039;-78
2021/06/08 11:30:00;;;;;;;4.62;3.00;;;;;;;23.93;52.24;99629.19;1700861;83;21076;-80
2021/06/08 11:32:38;;;;;;;5.80;3.65;;;;;;;23.86;53.35;99621.39;1695490;83;21116;-80
2021/06/08 11:35:34;;;;;;;7.60;3.83;;;;;;;23.88;53.73;99623.44;1712060;83;21607;-80
2021/06/08 11:38:27;;;;;;;4.05;3.22;;;;;;;23.87;53.72;99630.63;1697146;83;21446;-80
2021/06/08 11:40:57;;;;;;;6.42;3.55;;;;;;;23.93;54.42;99629.19;1708528;83;21135;-79
2021/06/08 11:43:32;;;;;;;4.60;3.52;;;;;;;23.94;54.28;99630.86;1686733;85;27089;-79
2021/06/08 11:46:07;;;;;;;6.42;3.40;;;;;;;23.93;54.55;99631.88;1713411;82;21106;-79
2021/06/08 11:48:36;;;;;;;7.97;3.50;;;;;;;23.92;54.89;99630.17;1707529;83;21049;-79